Time;durP1;ratioP1;P1;durP2;ratioP2;P2;SDS_P1;SDS_P2;PMS_P1;PMS_P2;Temp;Humidity;BMP_temperature;BMP_pressure;BME280_temperature;BME280_humidity;BME280_pressure;Samples;Min_cycle;Max_cycle;Signal;HPM_P1;HPM_P2
2022/08/06 00:01:07;;;;;;;2.88;1.30;;;14.30;17.60;;;;;;5010709;28;33989;-77
2022/08/06 00:03:33;;;;;;;2.05;1.20;;;14.30;17.60;;;;;;5030662;28;34186;-77
2022/08/06 00:05:59;;;;;;;3.80;1.20;;;14.30;17.60;;;;;;5041173;28;34394;-77
2022/08/06 00:08:25;;;;;;;1.30;1.20;;;14.20;17.60;;;;;;5007428;28;35610;-77
2022/08/06 00:10:51;;;;;;;1.88;1.27;;;14.20;17.70;;;;;;5014539;28;34312;-77
2022/08/06 00:13:18;;;;;;;1.25;1.20;;;14.20;17.70;;;;;;5046567;28;34164;-77
2022/08/06 00:15:45;;;;;;;1.40;1.30;;;14.10;17.70;;;;;;5038850;28;34186;-77
2022/08/06 00:18:10;;;;;;;2.78;1.27;;;14.10;17.80;;;;;;5036547;28;36557;-77
2022/08/06 00:20:36;;;;;;;1.20;1.10;;;14.00;17.70;;;;;;5046946;28;34431;-77
2022/08/06 00:23:02;;;;;;;1.38;1.20;;;14.00;17.80;;;;;;5025589;28;34304;-77
2022/08/06 00:25:29;;;;;;;1.15;1.15;;;14.00;17.80;;;;;;5034750;28;34450;-78
2022/08/06 00:27:55;;;;;;;2.05;1.23;;;13.90;17.90;;;;;;5049680;28;36524;-77
2022/08/06 00:30:21;;;;;;;1.30;1.20;;;13.90;17.90;;;;;;5085029;28;34041;-77
2022/08/06 00:32:47;;;;;;;2.13;1.23;;;13.90;18.00;;;;;;5066739;28;34186;-77
2022/08/06 00:35:13;;;;;;;2.30;1.20;;;13.90;18.60;;;;;;5066406;28;34292;-77
2022/08/06 00:37:39;;;;;;;4.93;1.30;;;13.80;18.00;;;;;;5068740;28;35590;-76
2022/08/06 00:40:06;;;;;;;1.27;1.10;;;13.80;18.10;;;;;;5066041;28;34283;-77
2022/08/06 00:42:32;;;;;;;2.03;1.00;;;13.70;18.10;;;;;;5066365;28;34370;-77
2022/08/06 00:44:59;;;;;;;1.08;1.05;;;13.80;18.30;;;;;;5066791;28;34129;-77
2022/08/06 00:47:25;;;;;;;0.95;0.95;;;13.70;18.30;;;;;;5049152;28;35749;-77
2022/08/06 00:49:51;;;;;;;1.33;1.23;;;13.60;18.30;;;;;;5084654;28;34269;-77
2022/08/06 00:52:17;;;;;;;1.30;1.20;;;13.60;18.30;;;;;;5048873;28;34337;-77
2022/08/06 00:54:43;;;;;;;2.60;1.20;;;13.60;18.30;;;;;;5068023;28;34309;-77
2022/08/06 00:57:09;;;;;;;1.25;1.17;;;13.60;18.40;;;;;;5062476;28;35595;-77
2022/08/06 00:59:35;;;;;;;1.20;1.10;;;13.50;18.40;;;;;;5065283;28;34128;-77
2022/08/06 01:02:01;;;;;;;2.03;1.10;;;13.50;18.50;;;;;;5063553;28;34476;-77
2022/08/06 01:04:26;;;;;;;1.23;1.10;;;13.50;18.60;;;;;;5049395;28;34393;-77
2022/08/06 01:06:52;;;;;;;1.10;1.00;;;13.50;18.70;;;;;;5047219;28;36619;-77
2022/08/06 01:09:18;;;;;;;3.05;1.27;;;13.40;18.60;;;;;;5083650;28;34199;-77
2022/08/06 01:11:44;;;;;;;1.33;1.13;;;13.40;18.60;;;;;;5064042;28;34124;-77
2022/08/06 01:14:10;;;;;;;2.63;1.40;;;13.40;18.70;;;;;;5060404;28;34458;-77
2022/08/06 01:16:46;;;;;;;1.13;1.08;;;13.30;18.70;;;;;;5028828;28;36371;-77
2022/08/06 01:19:41;;;;;;;1.17;1.17;;;13.30;19.00;;;;;;5045202;28;34230;-77
2022/08/06 01:22:26;;;;;;;2.17;1.70;;;13.20;20.70;;;;;;5053625;28;34197;-78
2022/08/06 01:25:12;;;;;;;1.85;1.60;;;13.20;20.00;;;;;;5062268;28;34463;-77
2022/08/06 01:27:58;;;;;;;1.52;1.20;;;13.20;20.20;;;;;;5077267;28;34239;-77
2022/08/06 01:30:29;;;;;;;1.17;1.15;;;13.10;20.40;;;;;;5079570;28;34315;-77
2022/08/06 01:33:04;;;;;;;1.25;1.20;;;13.10;19.10;;;;;;5086472;28;34105;-78
2022/08/06 01:35:35;;;;;;;1.30;1.20;;;13.00;19.30;;;;;;5056858;28;34343;-77
2022/08/06 01:38:20;;;;;;;1.23;1.17;;;13.00;18.80;;;;;;5068037;28;35874;-78
2022/08/06 01:40:47;;;;;;;2.00;1.10;;;13.00;20.70;;;;;;5068616;28;34247;-77
2022/08/06 01:43:17;;;;;;;1.20;1.10;;;12.90;18.90;;;;;;5068681;28;34451;-77
2022/08/06 01:45:44;;;;;;;1.20;1.10;;;12.90;19.10;;;;;;5065457;28;34193;-77
2022/08/06 01:48:17;;;;;;;2.55;1.20;;;12.90;19.10;;;;;;5048108;28;35886;-77
2022/08/06 01:50:47;;;;;;;1.20;1.10;;;12.80;19.30;;;;;;5057769;28;34706;-77
2022/08/06 01:53:15;;;;;;;1.35;1.20;;;12.80;19.20;;;;;;5048438;28;34091;-77
2022/08/06 01:55:51;;;;;;;1.60;1.15;;;12.70;19.00;;;;;;5068073;28;34542;-78
2022/08/06 01:58:20;;;;;;;1.38;1.23;;;12.70;19.90;;;;;;5049829;28;35768;-78
2022/08/06 02:00:51;;;;;;;1.75;1.20;;;12.70;19.40;;;;;;5058307;28;34225;-78
2022/08/06 02:03:31;;;;;;;1.23;1.13;;;12.60;19.40;;;;;;5086669;28;34196;-78
2022/08/06 02:05:59;;;;;;;1.40;1.30;;;12.70;20.70;;;;;;5075106;28;34138;-78
2022/08/06 02:08:31;;;;;;;1.20;1.20;;;12.60;19.40;;;;;;5068018;28;35925;-78
2022/08/06 02:10:59;;;;;;;3.17;1.40;;;12.60;19.60;;;;;;5056578;28;34213;-77
2022/08/06 02:13:28;;;;;;;3.20;1.58;;;12.60;19.50;;;;;;5072977;28;34193;-78
2022/08/06 02:15:55;;;;;;;16.88;10.57;;;12.60;19.50;;;;;;5075721;28;34291;-78
2022/08/06 02:18:23;;;;;;;2.60;2.40;;;12.60;19.40;;;;;;5067109;28;35849;-77
2022/08/06 02:20:52;;;;;;;1.58;1.45;;;12.60;19.60;;;;;;5053654;28;34776;-78
2022/08/06 02:23:22;;;;;;;1.42;1.25;;;12.50;19.60;;;;;;5057135;28;34451;-78
2022/08/06 02:25:53;;;;;;;1.30;1.17;;;12.50;19.60;;;;;;5065491;28;34078;-77
2022/08/06 02:28:22;;;;;;;1.55;1.15;;;12.50;19.80;;;;;;5047797;28;36396;-77
2022/08/06 02:30:52;;;;;;;1.30;1.20;;;12.50;19.40;;;;;;5033831;28;34238;-78
2022/08/06 02:33:18;;;;;;;1.38;1.20;;;12.40;19.40;;;;;;5075306;28;34311;-77
2022/08/06 02:35:52;;;;;;;2.67;1.35;;;12.40;19.50;;;;;;5068075;28;34248;-77
2022/08/06 02:38:31;;;;;;;1.20;1.10;;;12.40;19.80;;;;;;5085748;28;34476;-78
2022/08/06 02:41:04;;;;;;;1.75;1.30;;;12.40;20.30;;;;;;5086064;28;34122;-78
2022/08/06 02:43:36;;;;;;;1.20;1.20;;;12.30;20.30;;;;;;5085578;28;34053;-78
2022/08/06 02:46:11;;;;;;;5.32;1.27;;;12.30;19.90;;;;;;5081571;28;34231;-78
2022/08/06 02:48:56;;;;;;;2.03;1.15;;;12.30;20.10;;;;;;5067069;28;35537;-77
2022/08/06 02:51:32;;;;;;;1.95;1.00;;;12.20;20.00;;;;;;5049601;28;34319;-77
2022/08/06 02:54:04;;;;;;;1.02;1.02;;;12.10;20.50;;;;;;5085543;28;34210;-78
2022/08/06 02:56:31;;;;;;;3.42;1.27;;;12.10;20.00;;;;;;5067375;28;34074;-78
2022/08/06 02:59:00;;;;;;;1.40;1.30;;;12.10;19.80;;;;;;5050234;28;35617;-78
2022/08/06 03:01:34;;;;;;;2.53;1.38;;;12.10;19.80;;;;;;5068253;28;34192;-78
2022/08/06 03:04:01;;;;;;;3.92;1.20;;;12.10;20.70;;;;;;5047493;28;34138;-77
2022/08/06 03:06:33;;;;;;;1.40;1.30;;;12.10;20.00;;;;;;5066928;28;34477;-78
2022/08/06 03:09:02;;;;;;;1.20;1.10;;;12.10;20.10;;;;;;5050736;28;36771;-77
2022/08/06 03:11:32;;;;;;;1.33;1.25;;;12.00;20.00;;;;;;5050314;28;34397;-78
2022/08/06 03:14:03;;;;;;;1.00;1.00;;;12.00;20.10;;;;;;5084816;28;34195;-78
2022/08/06 03:16:34;;;;;;;1.42;1.33;;;11.90;20.10;;;;;;5067406;28;34036;-78
2022/08/06 03:19:01;;;;;;;1.33;1.08;;;11.90;20.30;;;;;;5033357;28;35907;-78
2022/08/06 03:21:29;;;;;;;1.77;1.15;;;11.90;20.00;;;;;;5084398;28;34267;-78
2022/08/06 03:23:58;;;;;;;1.80;1.25;;;11.90;20.50;;;;;;5073623;28;34370;-78
2022/08/06 03:26:27;;;;;;;1.80;1.30;;;11.80;20.50;;;;;;5037691;28;34193;-78
2022/08/06 03:28:55;;;;;;;1.65;1.33;;;11.80;20.50;;;;;;5027167;28;36455;-78
2022/08/06 03:31:23;;;;;;;1.40;1.30;;;11.80;20.40;;;;;;5010294;28;34125;-78
2022/08/06 03:33:52;;;;;;;1.30;1.20;;;11.80;20.20;;;;;;5042391;28;34550;-78
2022/08/06 03:36:19;;;;;;;1.35;1.25;;;11.70;20.30;;;;;;5046296;28;34551;-78
2022/08/06 03:38:54;;;;;;;1.45;1.23;;;11.70;20.30;;;;;;5042952;28;36120;-78
2022/08/06 03:41:20;;;;;;;1.00;1.00;;;11.70;20.30;;;;;;5047242;28;34015;-77
2022/08/06 03:43:46;;;;;;;1.83;1.17;;;11.70;20.30;;;;;;5026311;28;34270;-78
2022/08/06 03:46:15;;;;;;;3.53;1.10;;;11.70;21.20;;;;;;5030107;28;34328;-78
2022/08/06 03:48:43;;;;;;;1.30;1.20;;;11.70;20.50;;;;;;5046821;28;35892;-77
2022/08/06 03:51:13;;;;;;;2.35;1.20;;;11.60;20.40;;;;;;5046540;28;34143;-78
2022/08/06 03:53:41;;;;;;;2.22;1.40;;;11.60;20.60;;;;;;5060699;28;34176;-78
2022/08/06 03:56:08;;;;;;;1.20;1.10;;;11.60;20.20;;;;;;5046531;28;34210;-78
2022/08/06 03:58:39;;;;;;;1.30;1.20;;;11.60;20.30;;;;;;5046016;28;34471;-77
2022/08/06 04:01:11;;;;;;;1.75;1.23;;;11.50;20.70;;;;;;5046162;28;34476;-78
2022/08/06 04:03:39;;;;;;;2.90;1.23;;;11.50;20.90;;;;;;5064898;28;34210;-77
2022/08/06 04:06:09;;;;;;;1.23;1.10;;;11.50;20.40;;;;;;5033555;28;34968;-78
2022/08/06 04:08:37;;;;;;;1.27;1.17;;;11.40;20.30;;;;;;5024880;28;36396;-78
2022/08/06 04:11:03;;;;;;;1.90;1.40;;;11.40;20.20;;;;;;5047378;28;34186;-78
2022/08/06 04:13:29;;;;;;;1.13;1.13;;;11.30;20.20;;;;;;5047828;28;34533;-78
2022/08/06 04:15:57;;;;;;;2.20;1.35;;;11.30;20.40;;;;;;5026782;28;34523;-78
2022/08/06 04:18:30;;;;;;;3.90;1.40;;;11.20;20.40;;;;;;5044484;28;34976;-77
2022/08/06 04:21:00;;;;;;;1.63;1.50;;;11.20;21.10;;;;;;5029730;28;34456;-77
2022/08/06 04:23:26;;;;;;;1.30;1.20;;;11.20;20.60;;;;;;5035905;28;34604;-78
2022/08/06 04:25:55;;;;;;;2.08;1.30;;;11.20;20.50;;;;;;5047271;28;34087;-78
2022/08/06 04:28:24;;;;;;;1.27;1.10;;;11.20;20.90;;;;;;5046618;28;35867;-77
2022/08/06 04:30:50;;;;;;;1.30;1.20;;;11.20;20.80;;;;;;5047518;28;34153;-78
2022/08/06 04:33:23;;;;;;;1.45;1.35;;;11.20;21.00;;;;;;5046780;28;34236;-78
2022/08/06 04:35:49;;;;;;;1.98;1.35;;;11.20;21.70;;;;;;5030861;28;34087;-78
2022/08/06 04:38:17;;;;;;;1.42;1.33;;;11.20;21.30;;;;;;5046532;28;35875;-78
2022/08/06 04:40:43;;;;;;;1.48;1.38;;;11.20;21.20;;;;;;5047712;28;34193;-79
2022/08/06 04:43:11;;;;;;;3.05;1.60;;;11.20;21.20;;;;;;5065371;28;34212;-78
2022/08/06 04:45:39;;;;;;;5.03;1.80;;;11.20;21.00;;;;;;5047839;28;34146;-78
2022/08/06 04:48:08;;;;;;;1.63;1.48;;;11.20;21.20;;;;;;5021341;28;35792;-78
2022/08/06 04:50:35;;;;;;;1.55;1.40;;;11.20;21.10;;;;;;5047181;28;34239;-78
2022/08/06 04:53:08;;;;;;;1.45;1.35;;;11.20;21.10;;;;;;5064296;28;34207;-78
2022/08/06 04:55:34;;;;;;;2.42;1.65;;;11.30;21.60;;;;;;5053194;28;34282;-78
2022/08/06 04:58:03;;;;;;;3.13;1.70;;;11.30;21.30;;;;;;5027782;28;34326;-78
2022/08/06 05:00:31;;;;;;;1.75;1.60;;;11.40;21.40;;;;;;5043266;28;34388;-78
2022/08/06 05:02:58;;;;;;;1.42;1.30;;;11.40;21.20;;;;;;5041023;28;34367;-78
2022/08/06 05:05:24;;;;;;;4.22;1.85;;;11.40;21.10;;;;;;5046381;28;34209;-78
2022/08/06 05:07:53;;;;;;;2.55;1.55;;;11.50;21.10;;;;;;5043982;28;36034;-78
2022/08/06 05:10:22;;;;;;;2.80;1.58;;;11.50;21.00;;;;;;5011004;28;34203;-77
2022/08/06 05:12:54;;;;;;;1.52;1.38;;;11.40;21.10;;;;;;5037553;28;35311;-78
2022/08/06 05:15:27;;;;;;;1.92;1.40;;;11.50;21.40;;;;;;5026918;28;34581;-78
2022/08/06 05:18:00;;;;;;;6.65;1.67;;;11.50;21.40;;;;;;5014318;28;35764;-78
2022/08/06 05:20:31;;;;;;;1.63;1.52;;;11.50;21.40;;;;;;5029047;28;34496;-77
2022/08/06 05:23:02;;;;;;;2.10;1.90;;;11.80;21.10;;;;;;5028172;28;34367;-78
2022/08/06 05:25:28;;;;;;;2.20;1.73;;;12.50;20.80;;;;;;5052564;28;34371;-78
2022/08/06 05:27:55;;;;;;;1.65;1.55;;;13.40;19.30;;;;;;5065859;28;35645;-78
2022/08/06 05:30:21;;;;;;;1.52;1.40;;;14.10;18.30;;;;;;5051099;28;34212;-78
2022/08/06 05:32:49;;;;;;;2.15;1.50;;;14.40;17.40;;;;;;5075177;28;34125;-78
2022/08/06 05:35:15;;;;;;;1.25;1.10;;;14.50;17.30;;;;;;5064828;28;34202;-78
2022/08/06 05:37:41;;;;;;;3.05;1.27;;;14.40;17.40;;;;;;5056914;28;36251;-79
2022/08/06 05:40:08;;;;;;;1.20;1.10;;;14.30;17.80;;;;;;5062858;28;34233;-78
2022/08/06 05:42:34;;;;;;;2.10;1.33;;;14.30;18.10;;;;;;5064404;28;34748;-78
2022/08/06 05:45:01;;;;;;;1.60;1.50;;;14.30;18.20;;;;;;5051039;28;34124;-78
2022/08/06 05:47:31;;;;;;;2.35;1.70;;;14.40;18.20;;;;;;5049302;28;36000;-78
2022/08/06 05:50:06;;;;;;;3.53;1.83;;;14.60;18.20;;;;;;5033342;28;34125;-78
2022/08/06 05:52:44;;;;;;;5.20;2.30;;;14.60;18.40;;;;;;5057126;28;34307;-78
2022/08/06 05:55:16;;;;;;;3.55;2.15;;;14.80;18.30;;;;;;5049540;28;34485;-78
2022/08/06 06:00:45;;;;;;;3.85;2.22;;;15.30;19.20;;;;;;5081283;28;34192;-80
2022/08/06 06:03:16;;;;;;;7.40;2.30;;;15.80;17.30;;;;;;5078325;28;34337;-78
2022/08/06 06:05:43;;;;;;;7.28;2.70;;;16.60;16.90;;;;;;5068460;28;33895;-79
2022/08/06 06:08:09;;;;;;;5.82;2.80;;;17.40;15.50;;;;;;5057073;28;36522;-79
2022/08/06 06:10:38;;;;;;;3.30;2.70;;;18.30;14.30;;;;;;5102829;28;34775;-80
2022/08/06 06:13:05;;;;;;;5.05;2.60;;;19.30;13.20;;;;;;5050289;28;34125;-79
2022/08/06 06:15:37;;;;;;;3.92;2.90;;;20.30;11.80;;;;;;5073740;28;34056;-78
2022/08/06 06:18:39;;;;;;;4.30;3.00;;;21.00;10.00;;;;;;5074703;28;35777;-78
2022/08/06 06:21:22;;;;;;;2.67;2.40;;;21.80;7.00;;;;;;5039001;28;34385;-80
2022/08/06 06:24:04;;;;;;;5.82;3.25;;;22.60;7.20;;;;;;5077897;28;34110;-79
2022/08/06 06:26:50;;;;;;;6.47;3.88;;;23.30;4.60;;;;;;5043701;28;35749;-78
2022/08/06 06:29:37;;;;;;;6.45;3.88;;;23.90;3.70;;;;;;5034919;28;35714;-79
2022/08/06 06:32:13;;;;;;;4.75;3.75;;;24.40;3.00;;;;;;5029234;28;34375;-79
2022/08/06 06:35:02;;;;;;;5.65;3.97;;;24.90;4.00;;;;;;5033126;28;34315;-78
2022/08/06 06:37:51;;;;;;;6.25;3.65;;;25.20;1.70;;;;;;5039773;28;34464;-79
2022/08/06 06:40:37;;;;;;;5.68;4.10;;;25.50;1.00;;;;;;5040547;28;36024;-78
2022/08/06 06:43:11;;;;;;;4.93;3.80;;;25.90;1.00;;;;;;5045465;28;34181;-79
2022/08/06 06:45:58;;;;;;;7.18;3.50;;;26.30;1.00;;;;;;5037972;28;34346;-78
2022/08/06 06:48:32;;;;;;;4.57;3.08;;;26.40;1.00;;;;;;5059845;28;34133;-80
2022/08/06 06:51:06;;;;;;;6.35;2.50;;;26.60;1.00;;;;;;5035998;28;34643;-78
2022/08/06 06:53:37;;;;;;;3.50;2.70;;;26.60;1.00;;;;;;5047448;28;34649;-78
2022/08/06 06:56:04;;;;;;;5.13;2.90;;;26.70;1.00;;;;;;5053180;28;34189;-80
2022/08/06 06:58:42;;;;;;;4.07;2.20;;;26.70;1.00;;;;;;5048825;28;34502;-79
2022/08/06 07:01:13;;;;;;;3.58;1.95;;;26.90;1.00;;;;;;5048945;28;35819;-78
2022/08/06 07:03:41;;;;;;;4.50;1.70;;;27.00;1.00;;;;;;5034140;28;34484;-78
2022/08/06 07:06:09;;;;;;;2.03;1.75;;;27.10;1.00;;;;;;5030022;28;34176;-78
2022/08/06 07:08:45;;;;;;;4.32;1.80;;;27.20;1.00;;;;;;5029936;28;34394;-78
2022/08/06 07:11:18;;;;;;;2.05;1.42;;;27.40;1.00;;;;;;5050889;28;35848;-79
2022/08/06 07:13:45;;;;;;;3.80;0.90;;;27.60;1.00;;;;;;5062945;28;34297;-79
2022/08/06 07:16:14;;;;;;;1.33;1.10;;;27.60;1.00;;;;;;5045960;28;34291;-78
2022/08/06 07:18:42;;;;;;;2.42;0.88;;;27.70;1.00;;;;;;5030695;28;34086;-78
2022/08/06 07:21:08;;;;;;;3.63;1.02;;;27.70;1.00;;;;;;5044656;28;36041;-80
2022/08/06 07:23:36;;;;;;;1.48;0.93;;;27.60;1.00;;;;;;5033632;28;34235;-78
2022/08/06 07:26:03;;;;;;;2.17;1.13;;;27.50;1.00;;;;;;5028497;28;34445;-78
2022/08/06 07:28:30;;;;;;;2.78;1.08;;;27.20;1.00;;;;;;5041359;28;34578;-77
2022/08/06 07:30:58;;;;;;;2.55;0.80;;;27.00;1.00;;;;;;5036642;28;36801;-79
2022/08/06 07:33:25;;;;;;;1.55;1.20;;;26.90;1.00;;;;;;5067576;28;34266;-78
2022/08/06 07:35:52;;;;;;;1.92;1.02;;;26.80;1.00;;;;;;5040007;28;34420;-79
2022/08/06 07:38:21;;;;;;;1.70;1.00;;;26.60;1.00;;;;;;5055963;28;34418;-77
2022/08/06 07:41:00;;;;;;;2.20;0.90;;;26.50;1.00;;;;;;5036536;28;35878;-80
2022/08/06 07:43:38;;;;;;;2.03;1.02;;;26.30;1.00;;;;;;5024405;28;34371;-79
2022/08/06 07:46:07;;;;;;;2.67;0.98;;;26.20;1.00;;;;;;5042733;28;34157;-79
2022/08/06 07:48:43;;;;;;;4.53;0.93;;;26.00;1.00;;;;;;5064228;28;34153;-78
2022/08/06 07:51:10;;;;;;;4.22;1.55;;;26.00;1.00;;;;;;5062309;28;35007;-78
2022/08/06 07:53:40;;;;;;;3.60;1.00;;;26.00;1.00;;;;;;5028202;28;34143;-77
2022/08/06 07:56:08;;;;;;;3.85;0.90;;;26.00;1.00;;;;;;5046904;28;34078;-78
2022/08/06 07:58:35;;;;;;;2.55;1.13;;;25.90;1.00;;;;;;5071554;28;34321;-78
2022/08/06 08:01:02;;;;;;;1.05;0.90;;;26.20;1.00;;;;;;5046931;28;36391;-78
2022/08/06 08:06:18;;;;;;;3.47;1.23;;;26.40;1.00;;;;;;5073439;28;34246;-79
2022/08/06 08:08:46;;;;;;;2.05;1.15;;;26.40;1.00;;;;;;5062914;28;34311;-79
2022/08/06 08:11:14;;;;;;;4.70;1.52;;;26.50;1.00;;;;;;5079059;28;34329;-80
2022/08/06 08:13:41;;;;;;;3.67;1.38;;;26.60;1.00;;;;;;5044518;28;34160;-78
2022/08/06 08:16:09;;;;;;;3.65;1.30;;;26.50;1.00;;;;;;5041590;28;34276;-78
2022/08/06 08:18:35;;;;;;;2.00;1.27;;;26.50;1.00;;;;;;5010529;28;34180;-79
2022/08/06 08:21:03;;;;;;;3.65;1.17;;;26.30;1.00;;;;;;5023837;28;35691;-78
2022/08/06 08:23:30;;;;;;;4.70;1.00;;;26.30;1.00;;;;;;5016695;28;34176;-78
2022/08/06 08:25:59;;;;;;;3.25;1.42;;;26.20;1.00;;;;;;5050944;28;34494;-77
2022/08/06 08:28:25;;;;;;;3.75;1.15;;;26.20;1.00;;;;;;5032785;28;34117;-77
2022/08/06 08:30:51;;;;;;;2.35;1.00;;;26.30;1.00;;;;;;5037710;28;36284;-77
2022/08/06 08:33:19;;;;;;;3.75;1.10;;;26.50;1.00;;;;;;5030469;28;34386;-78
2022/08/06 08:35:48;;;;;;;1.63;1.10;;;26.30;1.00;;;;;;5013385;28;34255;-78
2022/08/06 08:38:15;;;;;;;3.67;1.30;;;26.40;1.00;;;;;;5033781;28;34253;-77
2022/08/06 08:40:42;;;;;;;2.80;1.25;;;26.50;1.00;;;;;;5059645;28;34661;-79
2022/08/06 08:43:12;;;;;;;2.70;1.02;;;26.50;1.00;;;;;;5019674;28;34431;-81
2022/08/06 08:45:43;;;;;;;3.05;1.02;;;26.40;1.00;;;;;;5043786;28;33763;-78
2022/08/06 08:48:12;;;;;;;2.45;0.90;;;26.40;1.00;;;;;;5027340;28;34122;-77
2022/08/06 08:50:42;;;;;;;2.15;1.02;;;26.50;1.00;;;;;;5045478;28;34327;-77
2022/08/06 08:53:13;;;;;;;3.15;1.00;;;26.60;1.00;;;;;;5028004;28;34523;-80
2022/08/06 08:55:41;;;;;;;3.05;1.05;;;26.70;1.00;;;;;;5022476;28;34130;-78
2022/08/06 08:58:07;;;;;;;1.50;0.70;;;26.80;1.00;;;;;;5047446;28;34272;-80
2022/08/06 09:00:35;;;;;;;1.25;0.60;;;26.90;1.00;;;;;;5045186;28;35736;-80
2022/08/06 09:03:03;;;;;;;2.40;0.75;;;27.00;1.00;;;;;;5060470;28;34349;-80
2022/08/06 09:05:30;;;;;;;1.70;0.70;;;27.20;1.00;;;;;;5034765;28;34320;-78
2022/08/06 09:07:57;;;;;;;2.80;0.80;;;27.30;1.00;;;;;;5046224;28;34279;-79
2022/08/06 09:10:24;;;;;;;1.33;0.70;;;27.20;1.00;;;;;;5026709;28;36664;-78
2022/08/06 09:12:53;;;;;;;1.92;0.60;;;27.00;1.00;;;;;;5044505;28;34069;-78
2022/08/06 09:15:19;;;;;;;3.40;0.60;;;27.10;1.00;;;;;;5050223;27;34376;-79
2022/08/06 09:17:47;;;;;;;1.27;0.63;;;27.20;1.00;;;;;;5113442;27;34451;-78
2022/08/06 09:20:13;;;;;;;1.55;0.50;;;27.20;1.00;;;;;;5142154;27;36361;-79
2022/08/06 09:22:39;;;;;;;0.77;0.50;;;27.20;1.00;;;;;;5138554;27;34136;-80
2022/08/06 09:25:05;;;;;;;0.65;0.60;;;27.10;1.00;;;;;;5128469;27;34325;-82
2022/08/06 09:27:34;;;;;;;2.10;0.52;;;27.10;1.00;;;;;;5112774;27;34400;-78
2022/08/06 09:30:04;;;;;;;1.70;0.70;;;27.20;1.00;;;;;;5124026;27;35593;-80
2022/08/06 09:32:46;;;;;;;1.20;0.65;;;27.20;1.00;;;;;;5111036;27;34023;-77
2022/08/06 09:35:23;;;;;;;1.45;0.60;;;27.40;1.00;;;;;;5091863;27;34166;-79
2022/08/06 09:37:59;;;;;;;1.60;0.40;;;27.40;1.00;;;;;;5088619;28;34123;-77
2022/08/06 09:40:25;;;;;;;0.95;0.50;;;27.30;1.00;;;;;;5115385;27;35061;-78
2022/08/06 09:42:52;;;;;;;0.90;0.40;;;27.30;1.00;;;;;;5128782;27;34099;-77
2022/08/06 09:45:21;;;;;;;1.50;0.68;;;27.40;1.00;;;;;;5111546;27;34402;-79
2022/08/06 09:47:59;;;;;;;1.40;0.73;;;27.40;1.00;;;;;;5095833;27;34191;-77
2022/08/06 09:50:41;;;;;;;1.38;0.45;;;27.50;1.00;;;;;;5090102;27;35744;-80
2022/08/06 09:53:08;;;;;;;2.10;0.60;;;27.30;1.00;;;;;;5120275;27;34174;-80
2022/08/06 09:55:34;;;;;;;1.55;0.52;;;27.40;1.00;;;;;;5096838;27;34546;-79
2022/08/06 09:58:01;;;;;;;1.35;0.55;;;27.10;1.00;;;;;;5106604;27;33838;-77
2022/08/06 10:00:30;;;;;;;3.58;0.75;;;27.10;1.00;;;;;;5111580;27;35811;-77
2022/08/06 10:03:05;;;;;;;2.35;0.68;;;27.00;1.00;;;;;;5131149;27;34159;-76
2022/08/06 10:05:32;;;;;;;1.75;0.60;;;26.90;1.00;;;;;;5140132;27;34450;-77
2022/08/06 10:08:08;;;;;;;2.60;0.77;;;26.90;1.00;;;;;;5145189;27;34288;-77
2022/08/06 10:10:44;;;;;;;1.98;0.52;;;27.00;1.00;;;;;;5129375;27;35895;-79
2022/08/06 10:13:12;;;;;;;1.70;0.43;;;26.80;1.00;;;;;;5123021;27;34088;-80
2022/08/06 10:15:38;;;;;;;1.05;0.50;;;26.80;1.00;;;;;;5093856;27;34234;-80
2022/08/06 10:18:04;;;;;;;1.75;0.73;;;26.80;1.00;;;;;;5110219;27;34072;-75
2022/08/06 10:20:30;;;;;;;0.80;0.60;;;27.00;1.00;;;;;;5109139;27;36124;-79
2022/08/06 10:22:57;;;;;;;3.42;0.63;;;27.30;1.00;;;;;;5110334;27;34283;-76
2022/08/06 10:25:25;;;;;;;2.25;0.50;;;27.60;1.00;;;;;;5107629;27;34438;-79
2022/08/06 10:27:54;;;;;;;0.70;0.60;;;27.80;1.00;;;;;;5103127;27;34396;-77
2022/08/06 10:30:21;;;;;;;0.50;0.50;;;27.60;1.00;;;;;;5109582;27;34629;-80
2022/08/06 10:32:55;;;;;;;0.70;0.60;;;27.50;1.00;;;;;;5109159;27;34108;-78
2022/08/06 10:35:23;;;;;;;1.92;0.40;;;27.60;1.00;;;;;;5092959;27;33880;-77
2022/08/06 10:37:56;;;;;;;1.35;0.55;;;27.50;1.00;;;;;;5110056;27;34434;-77
2022/08/06 10:40:23;;;;;;;1.67;0.57;;;27.40;1.00;;;;;;5120150;27;34286;-79
2022/08/06 10:42:51;;;;;;;0.50;0.50;;;27.50;1.00;;;;;;5103181;27;34405;-77
2022/08/06 10:45:22;;;;;;;1.55;0.50;;;27.50;1.00;;;;;;5087196;27;35762;-78
2022/08/06 10:47:49;;;;;;;0.75;0.50;;;27.60;1.00;;;;;;5129514;27;34293;-77
2022/08/06 10:50:15;;;;;;;0.65;0.43;;;27.70;1.00;;;;;;5101046;27;34976;-76
2022/08/06 10:52:43;;;;;;;1.08;0.60;;;27.70;1.00;;;;;;5133676;27;34299;-80
2022/08/06 10:55:10;;;;;;;0.57;0.47;;;27.70;1.00;;;;;;5108406;27;34169;-78
2022/08/06 10:57:40;;;;;;;1.88;0.60;;;27.70;1.00;;;;;;5081403;27;34253;-78
2022/08/06 11:00:09;;;;;;;1.33;0.55;;;27.70;1.00;;;;;;5094535;27;35595;-79
2022/08/06 11:02:51;;;;;;;0.68;0.60;;;27.70;1.00;;;;;;5117236;27;34437;-78
2022/08/06 11:05:23;;;;;;;1.85;0.60;;;27.80;1.00;;;;;;5104413;27;34469;-82
2022/08/06 11:08:20;;;;;;;1.27;0.40;;;28.00;1.00;;;;;;5098645;27;34216;-78
2022/08/06 11:10:58;;;;;;;1.35;0.40;;;28.00;1.00;;;;;;5074539;27;35548;-78
2022/08/06 11:13:55;;;;;;;2.53;0.90;;;28.20;1.00;;;;;;5080365;28;34385;-77
2022/08/06 11:16:24;;;;;;;4.00;1.65;;;28.40;1.00;;;;;;5108727;27;34172;-76
2022/08/06 11:19:00;;;;;;;1.58;0.60;;;28.30;1.00;;;;;;5096837;27;34629;-77
2022/08/06 11:21:43;;;;;;;0.60;0.60;;;28.30;1.00;;;;;;5098197;27;36454;-77
2022/08/06 11:24:14;;;;;;;0.82;0.60;;;28.40;1.00;;;;;;5117984;27;34521;-79
2022/08/06 11:26:43;;;;;;;0.68;0.50;;;28.40;1.00;;;;;;5115028;27;34170;-80
2022/08/06 11:29:15;;;;;;;1.02;0.43;;;28.50;1.00;;;;;;5105802;27;34185;-81
2022/08/06 11:31:48;;;;;;;1.40;0.50;;;28.70;1.00;;;;;;5081982;28;35938;-78
2022/08/06 11:34:17;;;;;;;1.05;0.50;;;28.70;1.00;;;;;;5098674;28;34316;-77
2022/08/06 11:37:00;;;;;;;0.50;0.50;;;28.60;1.00;;;;;;5083105;27;35757;-80
2022/08/06 11:39:27;;;;;;;0.60;0.47;;;28.70;1.00;;;;;;5098323;28;34104;-79
2022/08/06 11:41:58;;;;;;;1.13;0.50;;;28.80;1.00;;;;;;5127532;27;36281;-77
2022/08/06 11:44:26;;;;;;;0.70;0.60;;;28.80;1.00;;;;;;5090241;28;34179;-76
2022/08/06 11:47:13;;;;;;;2.28;0.43;;;28.90;1.00;;;;;;5078055;27;34183;-77
2022/08/06 11:49:42;;;;;;;0.80;0.63;;;29.00;1.00;;;;;;5103272;27;34514;-80
2022/08/06 11:52:09;;;;;;;0.82;0.43;;;29.00;1.00;;;;;;5090708;27;35947;-78
2022/08/06 11:55:06;;;;;;;0.57;0.57;;;29.10;1.00;;;;;;5090861;28;34319;-81
2022/08/06 11:57:33;;;;;;;1.10;0.50;;;29.20;1.00;;;;;;5103862;27;34146;-78
2022/08/06 12:00:08;;;;;;;0.30;0.30;;;29.10;1.00;;;;;;5114285;27;34464;-79
2022/08/06 12:02:50;;;;;;;2.65;0.50;;;29.10;1.00;;;;;;5091054;28;35727;-80
2022/08/06 12:05:33;;;;;;;0.82;0.43;;;29.00;1.00;;;;;;5127941;27;34229;-82
2022/08/06 12:08:18;;;;;;;3.60;0.60;;;29.00;1.00;;;;;;5091577;27;34216;-81
2022/08/06 12:11:19;;;;;;;0.73;0.50;;;29.20;1.00;;;;;;5098854;27;34536;-77
2022/08/06 12:13:45;;;;;;;0.57;0.50;;;28.90;1.00;;;;;;5074688;28;36587;-81
2022/08/06 12:16:27;;;;;;;0.50;0.40;;;29.00;1.00;;;;;;5108803;27;34443;-77
2022/08/06 12:18:54;;;;;;;0.52;0.50;;;28.90;1.00;;;;;;5107068;27;34452;-78
2022/08/06 12:21:23;;;;;;;2.42;0.60;;;29.00;1.00;;;;;;5112339;27;34210;-80
2022/08/06 12:23:52;;;;;;;1.70;0.52;;;29.00;1.00;;;;;;5142702;27;36586;-77
2022/08/06 12:26:21;;;;;;;0.90;0.60;;;29.00;1.00;;;;;;5088928;27;34158;-77
2022/08/06 12:28:49;;;;;;;1.25;0.60;;;28.80;1.00;;;;;;5090253;27;34100;-78
2022/08/06 12:31:29;;;;;;;2.30;1.55;;;28.70;1.00;;;;;;5111630;27;34503;-77
2022/08/06 12:33:55;;;;;;;1.17;0.50;;;28.90;1.00;;;;;;5107550;27;35626;-77
2022/08/06 12:36:26;;;;;;;1.58;0.40;;;29.00;1.00;;;;;;5092221;27;35638;-79
2022/08/06 12:38:55;;;;;;;1.30;0.35;;;29.10;1.00;;;;;;5125707;27;34195;-80
2022/08/06 12:41:21;;;;;;;1.40;0.75;;;29.10;1.00;;;;;;5108667;27;34206;-79
2022/08/06 12:43:47;;;;;;;1.02;0.65;;;29.10;1.00;;;;;;5105563;27;35904;-77
2022/08/06 12:46:15;;;;;;;1.08;0.40;;;29.20;1.00;;;;;;5137654;27;34378;-79
2022/08/06 12:48:47;;;;;;;1.05;0.50;;;29.30;1.00;;;;;;5103938;27;34797;-81
2022/08/06 12:51:13;;;;;;;1.88;0.50;;;29.40;1.00;;;;;;5088451;27;34491;-79
2022/08/06 12:53:43;;;;;;;1.73;0.40;;;29.50;1.00;;;;;;5105366;27;35703;-79
2022/08/06 12:56:11;;;;;;;0.85;0.30;;;29.60;1.00;;;;;;5114928;27;34663;-80
2022/08/06 12:58:40;;;;;;;0.60;0.40;;;29.60;1.00;;;;;;5137155;27;34423;-78
2022/08/06 13:01:09;;;;;;;0.30;0.30;;;29.60;1.00;;;;;;5115229;27;34166;-80
2022/08/06 13:03:38;;;;;;;0.65;0.50;;;29.60;1.00;;;;;;5134786;27;35682;-78
2022/08/06 13:06:06;;;;;;;1.08;0.50;;;29.70;1.00;;;;;;5105467;27;34122;-79
2022/08/06 13:08:33;;;;;;;1.35;0.40;;;29.70;1.00;;;;;;5082170;27;34148;-78
2022/08/06 13:10:59;;;;;;;1.70;0.55;;;29.50;1.00;;;;;;5119023;27;34451;-80
2022/08/06 13:13:46;;;;;;;1.80;0.60;;;29.40;1.00;;;;;;5108069;27;36435;-82
2022/08/06 13:16:13;;;;;;;0.40;0.40;;;29.40;1.00;;;;;;5087993;27;34093;-79